Huvudsida
METAR-TAF:

METAR-TAF

Flygplatser :

Akrotiri Airfield

Akrotiri, Cypern

latitud: 34-35N, longitud: 032-59E, höjd: 23 m

Aktuellt väderrapport

Denna rapport gjordes för 20 minuter sedan, klockan 04:50 UTC
Vind 4 kt från nordväst
Temperatur 13°C
Fuktighet 77%
Tryck 1014 hPa
Sikt 10 km eller mer
Brutna moln på en höjd av 6000 ft

METAR: LCRA 190450Z 31004KT 9999 BKN060 13/09 Q1014 NOSIG

Tid: 07:10 (05:10 UTC)

Väderprognos

Denna rapport gjordes för 4 timmar och 3 minuter sedan, klockan 01:07 UTC
Prognos gäller från 19 kl. 03 UTC till 19 kl. 21 UTC
Vind 7 kt från ost/nordost
Sikt 10 km eller mer
Brutna moln på en höjd av 5000 ft
Blir
från 19 kl. 03 UTC till 19 kl. 06 UTC
Vind 10 kt från väst/nordväst

TAF: LCRA 190107Z 1903/1921 06007KT 9999 BKN050 BECMG 1903/1906 30010KT

Aktuella väderrapporter och prognoser från 4000 flygplatser (METAR- och TAF-rapporter).

De tillgängliga stationerna syns som gula och röda prickar på kartan.

För musen över prickarna för att se namnen på stationerna.

Klicka sedan för att få väderrapporter och prognoser.

För att ändra kartan: Klicka på de gröna knapparna med ett svart kors på för att zooma in; den gröna knappen med ett streck på för att zooma ut; eller på de gröna pilarna för angränsande kartor.


METAR-TAF: